SKPC/PCR METAR and TAF weather

Enter ICAO airport designator
Station Type Date Time Source
SKPC METAR 2020/09/30 19:00 UTC NOAA

SKPC 301900Z 34008KT 9999 FEW023 34/21 A2974


Station Type Date Time Source
SKPC Decoded METAR 2020/09/30 19:00 UTC NOAA

Puerto Carreno / A. Guauquea, Colombia (SKPC) 06-10N 067-30W
Sep 30, 2020 - 03:00 PM EDT / 2020.09.30 1900 UTC
Wind: from the NNW (340 degrees) at 9 MPH (8 KT):0
Visibility: greater than 7 mile(s):0
Sky conditions: mostly clear
Temperature: 93 F (34 C)
Heat index: 98.4 F (36.9 C):1
Dew Point: 69 F (21 C)
Relative Humidity: 46%
Pressure (altimeter): 29.74 in. Hg (1007 hPa)
ob: SKPC 301900Z 34008KT 9999 FEW023 34/21 A2974
cycle: 19

Station Type Date Time Source
SKPC TAF UTC NOAA

Error!

Example: see airport list